createdAt,value
2023-04-23T00:03:37.614Z,10.70
2023-04-23T00:06:08.302Z,11.80
2023-04-23T00:08:41.773Z,11.90
2023-04-23T00:11:11.343Z,11.20
2023-04-23T00:13:41.020Z,12.50
2023-04-23T00:16:10.552Z,11.10
2023-04-23T00:18:40.432Z,12.60
2023-04-23T00:21:08.570Z,13.40
2023-04-23T00:23:38.308Z,12.80
2023-04-23T00:26:07.022Z,13.70
2023-04-23T00:28:35.965Z,13.60
2023-04-23T00:31:04.452Z,14.80
2023-04-23T00:33:32.642Z,12.10
2023-04-23T00:36:02.287Z,13.70
2023-04-23T00:38:31.051Z,14.50
2023-04-23T00:41:00.020Z,14.30
2023-04-23T00:43:28.827Z,12.40
2023-04-23T00:45:58.296Z,12.50
2023-04-23T00:48:28.937Z,14.30
2023-04-23T00:51:05.754Z,13.50
2023-04-23T00:53:34.396Z,14.00
2023-04-23T00:56:05.518Z,15.80
2023-04-23T00:58:34.805Z,13.70
2023-04-23T01:01:03.500Z,13.70
2023-04-23T01:03:35.588Z,13.60
2023-04-23T01:06:05.301Z,13.30
2023-04-23T01:08:35.275Z,14.00
2023-04-23T01:11:04.437Z,13.50
2023-04-23T01:13:32.740Z,14.90
2023-04-23T01:16:02.267Z,13.90
2023-04-23T01:18:30.891Z,13.30
2023-04-23T01:20:59.478Z,13.00
2023-04-23T01:23:28.320Z,13.80
2023-04-23T01:25:57.347Z,14.20
2023-04-23T01:28:26.329Z,13.20
2023-04-23T01:30:56.208Z,13.70
2023-04-23T01:33:25.029Z,13.90
2023-04-23T01:35:55.585Z,13.20
2023-04-23T01:38:25.430Z,13.50
2023-04-23T01:40:53.674Z,13.40
2023-04-23T01:43:23.128Z,12.10
2023-04-23T01:45:51.879Z,12.00
2023-04-23T01:48:21.381Z,11.60
2023-04-23T01:50:51.815Z,11.20
2023-04-23T01:53:20.590Z,10.80
2023-04-23T01:55:51.352Z,11.50
2023-04-23T01:58:19.573Z,11.50
2023-04-23T02:00:48.217Z,11.70
2023-04-23T02:03:17.902Z,11.50
2023-04-23T02:05:47.936Z,11.40
2023-04-23T02:08:16.081Z,12.80
2023-04-23T02:10:44.879Z,13.20
2023-04-23T02:13:13.457Z,12.30
2023-04-23T02:15:42.022Z,12.50
2023-04-23T02:18:10.780Z,13.70
2023-04-23T02:20:39.684Z,13.90
2023-04-23T02:23:09.105Z,14.20
2023-04-23T02:25:38.055Z,13.70
2023-04-23T02:28:08.059Z,13.50
2023-04-23T02:30:37.715Z,13.60
2023-04-23T02:33:06.544Z,15.20
2023-04-23T02:35:35.378Z,14.20
2023-04-23T02:38:03.715Z,14.40
2023-04-23T02:40:32.383Z,13.90
2023-04-23T02:43:01.220Z,13.40
2023-04-23T02:45:29.551Z,14.30
2023-04-23T02:47:57.835Z,13.70
2023-04-23T02:50:26.257Z,12.90
2023-04-23T02:52:54.809Z,12.20
2023-04-23T02:55:23.096Z,12.50
2023-04-23T02:57:52.392Z,12.40
2023-04-23T03:00:21.414Z,10.80
2023-04-23T03:02:50.506Z,9.20
2023-04-23T03:05:19.581Z,8.40
2023-04-23T03:07:47.755Z,6.40
2023-04-23T03:10:16.314Z,5.30
2023-04-23T03:12:45.191Z,5.30
2023-04-23T03:15:14.664Z,4.90
2023-04-23T03:17:44.900Z,3.80
2023-04-23T03:20:13.644Z,3.10
2023-04-23T03:22:42.262Z,2.20
2023-04-23T03:25:11.374Z,2.00
2023-04-23T03:27:40.502Z,1.90
2023-04-23T03:30:10.248Z,2.00
2023-04-23T03:32:39.979Z,1.60
2023-04-23T03:35:08.888Z,1.80
2023-04-23T03:37:37.558Z,2.10
2023-04-23T03:40:06.991Z,2.20
2023-04-23T03:42:35.773Z,2.40
2023-04-23T03:45:05.088Z,2.20
2023-04-23T03:47:34.528Z,2.80
2023-04-23T03:50:03.324Z,2.20
2023-04-23T03:52:32.937Z,2.40
2023-04-23T03:55:03.054Z,2.20
2023-04-23T03:57:31.632Z,2.80
2023-04-23T04:00:00.911Z,3.60
2023-04-23T04:02:30.425Z,3.60
2023-04-23T04:05:00.177Z,4.20
2023-04-23T04:07:29.567Z,4.30
2023-04-23T04:09:58.231Z,4.60
2023-04-23T04:12:27.540Z,3.70
2023-04-23T04:14:56.472Z,3.00
2023-04-23T04:17:25.710Z,2.80
2023-04-23T04:19:54.356Z,2.60
2023-04-23T04:22:23.558Z,3.00
2023-04-23T04:24:51.971Z,3.00
2023-04-23T04:27:20.697Z,3.00
2023-04-23T04:29:49.931Z,2.10
2023-04-23T04:32:18.581Z,2.50
2023-04-23T04:34:48.048Z,1.70
2023-04-23T04:37:16.596Z,1.80
2023-04-23T04:39:45.271Z,1.70
2023-04-23T04:42:14.075Z,1.30
2023-04-23T04:44:44.130Z,1.20
2023-04-23T04:47:12.833Z,1.10
2023-04-23T04:49:41.485Z,1.30
2023-04-23T04:52:09.825Z,1.40
2023-04-23T04:54:38.724Z,1.50
2023-04-23T04:57:07.603Z,1.70
2023-04-23T04:59:37.638Z,2.10
2023-04-23T05:02:06.893Z,2.10
2023-04-23T05:04:36.436Z,2.60
2023-04-23T05:07:06.078Z,2.60
2023-04-23T05:09:34.325Z,3.60
2023-04-23T05:12:03.804Z,3.60
2023-04-23T05:14:32.958Z,3.70
2023-04-23T05:17:01.217Z,4.50
2023-04-23T05:19:29.380Z,4.50
2023-04-23T05:21:58.202Z,4.80
2023-04-23T05:24:26.881Z,5.80
2023-04-23T05:26:56.213Z,5.40
2023-04-23T05:29:25.168Z,6.60
2023-04-23T05:31:54.230Z,6.00
2023-04-23T05:34:22.960Z,6.60
2023-04-23T05:36:51.896Z,6.70
2023-04-23T05:39:21.364Z,6.90
2023-04-23T05:41:49.558Z,6.80
2023-04-23T05:44:18.394Z,6.80
2023-04-23T05:46:47.030Z,7.20
2023-04-23T05:49:16.538Z,7.80
2023-04-23T05:51:46.580Z,7.00
2023-04-23T05:54:15.850Z,7.10
2023-04-23T05:56:44.686Z,7.50
2023-04-23T05:59:13.495Z,7.30
2023-04-23T06:01:42.795Z,7.90
2023-04-23T06:04:12.434Z,7.50
2023-04-23T06:06:42.865Z,7.50
2023-04-23T06:09:11.306Z,7.70
2023-04-23T06:11:39.958Z,7.00
2023-04-23T06:14:08.638Z,8.20
2023-04-23T06:16:36.932Z,7.30
2023-04-23T06:19:05.250Z,8.50
2023-04-23T06:21:34.115Z,7.80
2023-04-23T06:24:03.590Z,7.00
2023-04-23T06:26:33.232Z,5.70
2023-04-23T06:29:02.006Z,5.60
2023-04-23T06:31:30.255Z,5.70
2023-04-23T06:34:00.749Z,5.50
2023-04-23T06:36:29.742Z,5.60
2023-04-23T06:38:58.372Z,4.20
2023-04-23T06:41:26.718Z,3.70
2023-04-23T06:43:56.677Z,3.30
2023-04-23T06:46:25.669Z,3.10
2023-04-23T06:48:53.923Z,2.60
2023-04-23T06:51:25.092Z,2.10
2023-04-23T06:53:54.235Z,2.10
2023-04-23T06:56:22.860Z,1.80
2023-04-23T06:58:51.705Z,1.30
2023-04-23T07:01:21.406Z,1.60
2023-04-23T07:03:52.066Z,1.30
2023-04-23T07:06:20.801Z,1.00
2023-04-23T07:08:49.378Z,0.90
2023-04-23T07:11:18.422Z,1.20
2023-04-23T07:13:47.990Z,0.90
2023-04-23T07:16:17.066Z,1.00
2023-04-23T07:18:47.349Z,0.90
2023-04-23T07:21:17.048Z,0.90
2023-04-23T07:23:45.810Z,1.20
2023-04-23T07:26:15.429Z,0.90
2023-04-23T07:28:43.690Z,1.00
2023-04-23T07:31:14.284Z,1.70
2023-04-23T07:33:43.089Z,2.30
2023-04-23T07:36:11.251Z,2.60
2023-04-23T07:38:40.045Z,2.60
2023-04-23T07:41:09.545Z,2.40
2023-04-23T07:43:38.984Z,2.20
2023-04-23T07:46:08.275Z,1.80
2023-04-23T07:48:36.815Z,1.70
2023-04-23T07:51:06.205Z,1.70
2023-04-23T07:53:35.382Z,1.50
2023-04-23T07:56:05.992Z,1.40
2023-04-23T07:58:35.230Z,1.00
2023-04-23T08:01:04.253Z,1.20
2023-04-23T08:03:33.518Z,1.30
2023-04-23T08:06:03.399Z,0.90
2023-04-23T08:08:32.224Z,1.00
2023-04-23T08:11:02.316Z,0.90
2023-04-23T08:13:31.787Z,0.90
2023-04-23T08:16:00.613Z,1.00
2023-04-23T08:18:30.590Z,0.90
2023-04-23T08:20:59.307Z,0.70
2023-04-23T08:23:28.062Z,0.80
2023-04-23T08:25:57.778Z,1.10
2023-04-23T08:28:26.040Z,1.10
2023-04-23T08:30:54.717Z,1.30
2023-04-23T08:33:23.334Z,0.80
2023-04-23T08:35:52.043Z,1.20
2023-04-23T08:38:21.097Z,0.80
2023-04-23T08:40:56.462Z,0.70
2023-04-23T08:43:33.935Z,0.80
2023-04-23T08:46:04.922Z,1.20
2023-04-23T08:48:34.768Z,0.80
2023-04-23T08:51:04.963Z,4.70
2023-04-23T08:53:33.213Z,2.10
2023-04-23T08:56:03.079Z,1.20
2023-04-23T08:58:33.806Z,0.90
2023-04-23T09:01:03.608Z,0.60
2023-04-23T09:03:32.181Z,1.00
2023-04-23T09:06:01.922Z,0.80
2023-04-23T09:08:32.353Z,0.60
2023-04-23T09:11:02.116Z,0.80
2023-04-23T09:13:31.930Z,0.90
2023-04-23T09:16:01.020Z,0.90
2023-04-23T09:18:29.908Z,0.80
2023-04-23T09:20:58.194Z,0.80
2023-04-23T09:23:26.527Z,0.70
2023-04-23T09:25:56.976Z,1.20
2023-04-23T09:28:35.661Z,0.70
2023-04-23T09:31:08.295Z,1.00
2023-04-23T09:33:37.543Z,1.30
2023-04-23T09:36:16.174Z,0.70
2023-04-23T09:38:44.938Z,0.80
2023-04-23T09:41:27.412Z,1.10
2023-04-23T09:43:57.504Z,0.70
2023-04-23T09:46:37.465Z,0.60
2023-04-23T09:49:08.470Z,0.60
2023-04-23T09:51:43.311Z,0.70
2023-04-23T09:54:21.822Z,0.60
2023-04-23T09:56:52.055Z,0.70
2023-04-23T09:59:35.515Z,0.60
2023-04-23T10:02:12.767Z,0.70
2023-04-23T10:04:41.813Z,0.70
2023-04-23T10:07:17.896Z,0.80
2023-04-23T10:09:48.668Z,0.60
2023-04-23T10:14:49.689Z,0.70
2023-04-23T10:17:18.520Z,0.60
2023-04-23T10:19:50.212Z,0.70
2023-04-23T10:22:21.887Z,0.80
2023-04-23T10:24:55.448Z,0.90
2023-04-23T10:27:40.515Z,1.40
2023-04-23T10:30:17.508Z,1.40
2023-04-23T10:32:49.167Z,1.60
2023-04-23T10:35:18.571Z,2.00
2023-04-23T10:37:48.811Z,2.10
2023-04-23T10:40:25.092Z,1.70
2023-04-23T10:42:53.797Z,2.00
2023-04-23T10:45:25.659Z,1.80
2023-04-23T10:47:55.284Z,2.20
2023-04-23T10:50:26.881Z,2.10
2023-04-23T10:52:56.494Z,1.90
2023-04-23T10:55:27.686Z,2.30
2023-04-23T10:58:03.515Z,2.10
2023-04-23T11:00:46.272Z,1.80
2023-04-23T11:03:39.761Z,1.80
2023-04-23T11:06:14.954Z,2.10
2023-04-23T11:08:54.334Z,1.20
2023-04-23T11:11:40.405Z,1.70
2023-04-23T11:14:13.051Z,1.40
2023-04-23T11:16:41.925Z,1.70
2023-04-23T11:19:12.443Z,1.90
2023-04-23T11:22:07.145Z,1.40
2023-04-23T11:24:41.352Z,1.10
2023-04-23T11:27:12.410Z,1.40
2023-04-23T11:29:43.277Z,1.20
2023-04-23T11:32:18.028Z,1.20
2023-04-23T11:34:48.513Z,1.00
2023-04-23T11:37:18.472Z,1.00
2023-04-23T11:39:46.916Z,0.90
2023-04-23T11:42:17.131Z,1.20
2023-04-23T11:44:46.805Z,1.10
2023-04-23T11:47:16.634Z,0.80
2023-04-23T11:49:46.115Z,1.00
2023-04-23T11:52:14.839Z,0.80
2023-04-23T11:54:43.614Z,1.30
2023-04-23T11:57:12.427Z,1.00
2023-04-23T11:59:41.107Z,0.70
2023-04-23T12:02:09.733Z,0.80
2023-04-23T12:04:41.046Z,0.70
2023-04-23T12:07:19.596Z,1.00
2023-04-23T12:09:51.783Z,0.80
2023-04-23T12:12:20.774Z,0.70
2023-04-23T12:14:50.018Z,0.80
2023-04-23T12:17:22.073Z,0.80
2023-04-23T12:19:50.983Z,1.10
2023-04-23T12:22:27.401Z,0.70
2023-04-23T12:24:56.111Z,1.00
2023-04-23T12:27:26.039Z,2.30
2023-04-23T12:30:03.475Z,2.50
2023-04-23T12:32:35.091Z,1.70
2023-04-23T12:35:04.589Z,1.40
2023-04-23T12:37:37.140Z,1.70
2023-04-23T12:40:06.846Z,1.30
2023-04-23T12:42:35.451Z,1.10
2023-04-23T12:45:09.370Z,2.00
2023-04-23T12:47:38.215Z,2.60
2023-04-23T12:50:07.050Z,2.40
2023-04-23T12:52:35.969Z,3.00
2023-04-23T12:55:04.645Z,3.50
2023-04-23T12:57:33.395Z,3.90
2023-04-23T13:00:01.589Z,4.10
2023-04-23T13:02:31.547Z,3.90
2023-04-23T13:05:00.748Z,4.50
2023-04-23T13:07:30.105Z,4.40
2023-04-23T13:10:00.838Z,4.70
2023-04-23T13:12:29.498Z,4.60
2023-04-23T13:14:59.145Z,4.20
2023-04-23T13:17:27.407Z,4.00
2023-04-23T13:19:56.197Z,3.90
2023-04-23T13:22:24.338Z,4.20
2023-04-23T13:24:52.483Z,5.10
2023-04-23T13:27:20.697Z,4.40
2023-04-23T13:29:49.422Z,4.50
2023-04-23T13:32:18.720Z,4.20
2023-04-23T13:34:48.652Z,4.10
2023-04-23T13:37:18.072Z,5.00
2023-04-23T13:39:46.972Z,4.60
2023-04-23T13:42:18.984Z,4.20
2023-04-23T13:44:47.161Z,4.40
2023-04-23T13:47:15.359Z,5.60
2023-04-23T13:49:44.139Z,5.20
2023-04-23T13:52:12.837Z,4.60
2023-04-23T13:54:41.119Z,5.30
2023-04-23T13:57:09.684Z,4.60
2023-04-23T13:59:37.919Z,4.40
2023-04-23T14:02:07.890Z,4.80
2023-04-23T14:04:36.214Z,4.70
2023-04-23T14:07:04.684Z,4.70
2023-04-23T14:09:32.990Z,4.80
2023-04-23T14:12:01.230Z,5.00
2023-04-23T14:14:29.587Z,4.20
2023-04-23T14:16:57.798Z,4.70
2023-04-23T14:19:26.315Z,4.40
2023-04-23T14:21:54.582Z,4.40
2023-04-23T14:24:35.062Z,4.80
2023-04-23T14:27:05.161Z,4.40
2023-04-23T14:29:51.606Z,4.20
2023-04-23T14:32:19.737Z,4.20
2023-04-23T14:34:48.558Z,4.20
2023-04-23T14:37:18.044Z,4.10
2023-04-23T14:39:46.799Z,3.90
2023-04-23T14:42:14.956Z,4.10
2023-04-23T14:44:43.748Z,4.10
2023-04-23T14:47:11.934Z,4.10
2023-04-23T14:49:41.132Z,3.90
2023-04-23T14:52:09.904Z,4.00
2023-04-23T14:54:38.044Z,3.50
2023-04-23T14:57:07.746Z,3.40
2023-04-23T14:59:38.096Z,3.60
2023-04-23T15:02:07.177Z,3.40
2023-04-23T15:04:36.177Z,4.80
2023-04-23T15:07:04.985Z,4.40
2023-04-23T15:09:33.645Z,3.90
2023-04-23T15:12:01.785Z,4.20
2023-04-23T15:14:37.640Z,3.90
2023-04-23T15:17:05.829Z,4.20
2023-04-23T15:19:34.034Z,4.00
2023-04-23T15:22:02.353Z,3.40
2023-04-23T15:24:32.570Z,3.70
2023-04-23T15:27:01.237Z,3.60
2023-04-23T15:29:30.396Z,3.40
2023-04-23T15:31:58.660Z,4.30
2023-04-23T15:34:27.562Z,3.80
2023-04-23T15:36:56.434Z,4.30
2023-04-23T15:39:25.813Z,4.10
2023-04-23T15:41:54.058Z,3.60
2023-04-23T15:44:23.607Z,3.60
2023-04-23T15:46:52.466Z,3.70
2023-04-23T15:49:20.711Z,4.70
2023-04-23T15:51:49.451Z,4.30
2023-04-23T15:54:17.682Z,3.40
2023-04-23T15:56:46.402Z,3.40
2023-04-23T15:59:15.236Z,3.60
2023-04-23T16:01:44.070Z,3.40
2023-04-23T16:04:12.794Z,3.20
2023-04-23T16:06:42.599Z,4.40
2023-04-23T16:09:11.963Z,3.80
2023-04-23T16:11:40.738Z,3.50
2023-04-23T16:14:10.280Z,3.30
2023-04-23T16:16:38.830Z,3.30
2023-04-23T16:19:07.379Z,3.10
2023-04-23T16:21:37.382Z,3.70
2023-04-23T16:24:07.937Z,3.50
2023-04-23T16:26:36.699Z,3.70
2023-04-23T16:29:21.313Z,3.90
2023-04-23T16:31:50.894Z,4.00
2023-04-23T16:34:19.281Z,3.50
2023-04-23T16:36:48.638Z,3.00
2023-04-23T16:39:17.062Z,3.10
2023-04-23T16:41:45.900Z,3.00
2023-04-23T16:44:14.180Z,2.80
2023-04-23T16:46:45.407Z,3.30
2023-04-23T16:49:14.120Z,2.50
2023-04-23T16:51:42.692Z,2.50
2023-04-23T16:54:10.876Z,2.90
2023-04-23T16:56:40.397Z,2.70
2023-04-23T16:59:08.762Z,2.60
2023-04-23T17:01:37.131Z,3.80
2023-04-23T17:04:07.091Z,3.50
2023-04-23T17:06:36.050Z,2.80
2023-04-23T17:09:04.630Z,3.60
2023-04-23T17:11:33.675Z,3.20
2023-04-23T17:14:02.692Z,3.20
2023-04-23T17:16:31.019Z,3.30
2023-04-23T17:18:59.818Z,3.20
2023-04-23T17:21:28.123Z,3.40
2023-04-23T17:23:57.445Z,3.10
2023-04-23T17:26:26.712Z,3.20
2023-04-23T17:28:56.525Z,3.20
2023-04-23T17:31:25.296Z,4.00
2023-04-23T17:33:54.397Z,3.70
2023-04-23T17:36:23.034Z,2.90
2023-04-23T17:38:51.913Z,3.20
2023-04-23T17:41:20.762Z,3.40
2023-04-23T17:43:50.078Z,3.00
2023-04-23T17:46:18.411Z,3.20
2023-04-23T17:48:47.544Z,3.00
2023-04-23T17:51:16.696Z,3.10
2023-04-23T17:53:45.660Z,2.90
2023-04-23T17:56:15.923Z,3.50
2023-04-23T17:58:44.650Z,3.20
2023-04-23T18:01:15.035Z,3.30
2023-04-23T18:03:44.495Z,3.60
2023-04-23T18:06:12.934Z,3.60
2023-04-23T18:08:42.840Z,3.80
2023-04-23T18:11:11.954Z,3.80
2023-04-23T18:13:42.541Z,3.60
2023-04-23T18:16:12.629Z,2.90
2023-04-23T18:18:41.527Z,2.80
2023-04-23T18:21:09.770Z,3.40
2023-04-23T18:23:38.434Z,3.50
2023-04-23T18:26:06.909Z,2.70
2023-04-23T18:28:36.602Z,3.40
2023-04-23T18:31:05.164Z,3.20
2023-04-23T18:33:47.931Z,2.90
2023-04-23T18:36:30.650Z,2.70
2023-04-23T18:39:00.045Z,2.60
2023-04-23T18:41:29.023Z,2.80
2023-04-23T18:43:57.740Z,2.80
2023-04-23T18:46:26.760Z,3.10
2023-04-23T18:49:14.277Z,2.70
2023-04-23T18:51:50.949Z,3.00
2023-04-23T18:54:21.409Z,3.30
2023-04-23T18:56:50.711Z,3.20
2023-04-23T18:59:19.517Z,3.10
2023-04-23T19:01:48.668Z,2.90
2023-04-23T19:04:17.193Z,3.20
2023-04-23T19:06:46.303Z,3.40
2023-04-23T19:09:14.724Z,4.20
2023-04-23T19:11:43.443Z,4.10
2023-04-23T19:14:11.557Z,4.40
2023-04-23T19:16:40.862Z,4.10
2023-04-23T19:19:08.995Z,4.10
2023-04-23T19:21:37.276Z,4.40
2023-04-23T19:24:07.055Z,4.10
2023-04-23T19:26:35.651Z,3.80
2023-04-23T19:29:04.331Z,4.40
2023-04-23T19:31:33.369Z,3.80
2023-04-23T19:34:02.180Z,3.70
2023-04-23T19:36:30.332Z,3.50
2023-04-23T19:39:00.212Z,3.20
2023-04-23T19:41:30.098Z,3.80
2023-04-23T19:43:58.468Z,3.60
2023-04-23T19:46:28.358Z,3.20
2023-04-23T19:48:57.120Z,3.90
2023-04-23T19:51:29.830Z,3.40
2023-04-23T19:53:59.341Z,3.30
2023-04-23T19:56:28.735Z,3.30
2023-04-23T19:58:57.816Z,3.50
2023-04-23T20:01:27.594Z,4.00
2023-04-23T20:03:57.153Z,4.00
2023-04-23T20:06:28.058Z,3.80
2023-04-23T20:08:56.353Z,7.30
2023-04-23T20:11:26.262Z,4.90
2023-04-23T20:13:55.864Z,4.10
2023-04-23T20:16:25.303Z,3.80
2023-04-23T20:18:53.444Z,4.30
2023-04-23T20:21:23.338Z,4.10
2023-04-23T20:23:52.034Z,4.30
2023-04-23T20:26:21.099Z,5.00
2023-04-23T20:28:50.073Z,5.50
2023-04-23T20:31:21.380Z,4.30
2023-04-23T20:33:50.446Z,4.00
2023-04-23T20:36:19.439Z,4.10
2023-04-23T20:38:48.530Z,3.60
2023-04-23T20:41:17.180Z,4.40
2023-04-23T20:43:45.947Z,3.00
2023-04-23T20:46:15.319Z,3.50
2023-04-23T20:48:45.059Z,3.40
2023-04-23T20:51:14.731Z,3.60
2023-04-23T20:53:46.027Z,3.60
2023-04-23T20:56:15.805Z,3.80
2023-04-23T20:58:46.241Z,4.60
2023-04-23T21:01:17.280Z,4.50
2023-04-23T21:03:47.353Z,4.60
2023-04-23T21:06:17.758Z,4.30
2023-04-23T21:08:47.315Z,3.90
2023-04-23T21:11:18.179Z,4.50
2023-04-23T21:13:47.678Z,4.40
2023-04-23T21:16:16.955Z,4.90
2023-04-23T21:18:45.846Z,4.60
2023-04-23T21:21:15.287Z,4.80
2023-04-23T21:23:44.576Z,5.40
2023-04-23T21:26:13.164Z,4.00
2023-04-23T21:28:42.439Z,3.60
2023-04-23T21:31:17.931Z,3.80
2023-04-23T21:33:46.529Z,3.90
2023-04-23T21:36:16.069Z,3.50
2023-04-23T21:38:44.190Z,3.60
2023-04-23T21:41:14.057Z,3.30
2023-04-23T21:43:42.710Z,3.70
2023-04-23T21:46:12.074Z,3.30
2023-04-23T21:48:40.493Z,3.20
2023-04-23T21:51:08.819Z,3.70
2023-04-23T21:53:38.075Z,3.20
2023-04-23T21:56:08.324Z,3.90
2023-04-23T21:58:38.130Z,3.70
2023-04-23T22:01:06.409Z,3.80
2023-04-23T22:03:35.408Z,3.90
2023-04-23T22:06:07.310Z,3.80
2023-04-23T22:08:36.355Z,3.60
2023-04-23T22:11:06.281Z,3.90
2023-04-23T22:13:35.451Z,3.70
2023-04-23T22:16:10.682Z,4.30
2023-04-23T22:18:44.966Z,4.70
2023-04-23T22:21:13.909Z,5.10
2023-04-23T22:23:42.633Z,5.20
2023-04-23T22:26:11.962Z,6.00
2023-04-23T22:28:43.028Z,5.70
2023-04-23T22:31:12.176Z,6.30
2023-04-23T22:33:41.525Z,6.00
2023-04-23T22:36:10.729Z,6.00
2023-04-23T22:38:40.248Z,5.80
2023-04-23T22:41:08.868Z,5.70
2023-04-23T22:43:37.727Z,5.50
2023-04-23T22:46:06.775Z,5.20
2023-04-23T22:48:35.706Z,5.40
2023-04-23T22:51:05.219Z,5.10
2023-04-23T22:53:41.603Z,4.90
2023-04-23T22:56:12.986Z,5.50
2023-04-23T22:58:41.223Z,5.20
2023-04-23T23:01:10.412Z,5.60
2023-04-23T23:03:38.689Z,6.00
2023-04-23T23:06:07.559Z,5.10
2023-04-23T23:08:37.215Z,4.20
2023-04-23T23:11:07.022Z,4.70
2023-04-23T23:13:35.251Z,4.50
2023-04-23T23:16:04.333Z,3.90
2023-04-23T23:18:33.733Z,3.90
2023-04-23T23:21:02.476Z,4.20
2023-04-23T23:23:31.801Z,4.60
2023-04-23T23:26:00.563Z,4.20
2023-04-23T23:28:29.867Z,5.00
2023-04-23T23:30:59.372Z,4.70
2023-04-23T23:33:28.662Z,3.90
2023-04-23T23:35:57.613Z,3.50
2023-04-23T23:38:25.859Z,3.10
2023-04-23T23:40:54.587Z,2.60
2023-04-23T23:43:23.293Z,2.80
2023-04-23T23:45:52.466Z,2.40
2023-04-23T23:48:22.060Z,2.70
2023-04-23T23:50:50.930Z,2.70
2023-04-23T23:53:19.696Z,3.00
2023-04-23T23:55:48.321Z,3.00
2023-04-23T23:58:16.876Z,3.00
